Time;durP1;ratioP1;P1;durP2;ratioP2;P2;SDS_P1;SDS_P2;PMS_P1;PMS_P2;Temp;Humidity;BMP_temperature;BMP_pressure;BME280_temperature;BME280_humidity;BME280_pressure;Samples;Min_cycle;Max_cycle;Signal;HPM_P1;HPM_P2
2022/11/13 00:00:35;;;;;;;53.08;30.67;;;6.50;99.90;;;;;;5114681;28;20049;-66
2022/11/13 00:03:00;;;;;;;50.20;30.08;;;6.30;99.90;;;;;;5114187;28;20039;-66
2022/11/13 00:05:26;;;;;;;55.22;30.35;;;;;;;;;;5114259;28;20048;-68
2022/11/13 00:07:52;;;;;;;55.47;30.85;;;6.20;99.90;;;;;;5113617;28;20043;-67
2022/11/13 00:10:18;;;;;;;53.35;31.33;;;6.50;99.90;;;;;;5114024;28;20043;-67
2022/11/13 00:12:44;;;;;;;52.97;30.70;;;6.20;99.90;;;;;;5114041;28;20382;-69
2022/11/13 00:15:10;;;;;;;52.40;30.95;;;6.50;99.90;;;;;;5095966;28;20043;-67
2022/11/13 00:17:35;;;;;;;53.72;31.08;;;6.30;99.90;;;;;;5114076;28;20047;-67
2022/11/13 00:20:01;;;;;;;49.88;31.50;;;;;;;;;;5113872;28;20047;-67
2022/11/13 00:22:27;;;;;;;51.78;31.85;;;6.20;99.90;;;;;;5113912;28;20054;-67
2022/11/13 00:24:53;;;;;;;55.88;31.65;;;6.30;99.90;;;;;;5113996;28;20048;-67
2022/11/13 00:27:19;;;;;;;56.65;34.45;;;6.50;99.90;;;;;;5113716;28;20056;-66
2022/11/13 00:29:44;;;;;;;49.28;31.02;;;5.90;99.90;;;;;;5113812;28;20052;-67
2022/11/13 00:32:10;;;;;;;53.28;32.15;;;6.70;99.90;;;;;;5095916;28;20356;-67
2022/11/13 00:34:36;;;;;;;52.80;31.10;;;6.20;99.90;;;;;;5113388;28;20044;-67
2022/11/13 00:37:01;;;;;;;53.05;33.17;;;6.40;99.90;;;;;;5113320;28;20054;-66
2022/11/13 00:39:27;;;;;;;51.38;32.47;;;6.30;99.90;;;;;;5113529;28;20067;-67
2022/11/13 00:41:53;;;;;;;52.47;32.28;;;6.30;99.90;;;;;;5113587;28;20047;-67
2022/11/13 00:44:19;;;;;;;49.42;32.70;;;;;;;;;;5112737;28;20112;-67
2022/11/13 00:46:45;;;;;;;56.38;35.05;;;6.20;99.90;;;;;;5113461;28;20047;-67
2022/11/13 00:49:11;;;;;;;55.17;33.53;;;6.70;99.90;;;;;;5113359;28;20055;-68
2022/11/13 00:51:37;;;;;;;55.17;34.25;;;6.70;99.90;;;;;;5113407;28;20049;-67
2022/11/13 00:54:03;;;;;;;56.25;33.83;;;6.40;99.90;;;;;;5113252;28;20484;-66
2022/11/13 00:56:29;;;;;;;49.67;32.45;;;6.10;99.90;;;;;;5112722;28;20492;-67
2022/11/13 00:58:55;;;;;;;54.35;33.38;;;6.50;99.90;;;;;;5113387;28;20054;-68
2022/11/13 01:01:21;;;;;;;51.53;32.53;;;;;;;;;;5113509;28;20372;-67
2022/11/13 01:03:46;;;;;;;47.65;29.65;;;6.60;99.90;;;;;;5113397;28;20039;-67
2022/11/13 01:06:26;;;;;;;44.67;30.00;;;6.50;99.90;;;;;;5113358;28;20105;-67
2022/11/13 01:08:57;;;;;;;43.55;29.15;;;7.00;99.90;;;;;;5113397;28;20050;-66
2022/11/13 01:11:26;;;;;;;43.90;29.52;;;6.50;99.90;;;;;;5113074;28;20044;-66
2022/11/13 01:13:52;;;;;;;47.33;29.45;;;6.60;99.90;;;;;;5113258;28;20146;-66
2022/11/13 01:16:20;;;;;;;46.80;31.30;;;;;;;;;;5112326;28;20124;-66
2022/11/13 01:18:46;;;;;;;45.08;29.95;;;6.60;99.90;;;;;;5113172;28;20048;-67
2022/11/13 01:21:21;;;;;;;43.42;30.08;;;6.80;99.90;;;;;;5113285;28;20046;-66
2022/11/13 01:23:46;;;;;;;48.97;29.70;;;6.70;99.90;;;;;;5112046;28;20055;-67
2022/11/13 01:26:19;;;;;;;47.33;29.30;;;6.70;99.90;;;;;;5112197;28;20054;-67
2022/11/13 01:28:46;;;;;;;40.63;28.00;;;6.70;99.90;;;;;;5113236;28;20056;-68
2022/11/13 01:31:15;;;;;;;46.30;28.85;;;6.60;99.90;;;;;;5113064;28;20047;-67
2022/11/13 01:33:42;;;;;;;44.42;28.23;;;7.00;99.90;;;;;;5113024;28;20072;-67
2022/11/13 01:36:15;;;;;;;43.65;28.77;;;6.60;99.90;;;;;;5113084;28;20087;-66
2022/11/13 01:38:41;;;;;;;43.28;27.83;;;;;;;;;;5112698;28;20070;-68
2022/11/13 01:41:11;;;;;;;43.00;28.90;;;6.70;99.90;;;;;;5112728;28;20488;-67
2022/11/13 01:43:37;;;;;;;41.65;27.50;;;6.50;99.90;;;;;;5113096;28;20043;-67
2022/11/13 01:46:06;;;;;;;39.47;26.92;;;6.80;99.90;;;;;;5112964;28;20475;-68
2022/11/13 01:48:42;;;;;;;45.17;27.58;;;6.90;99.90;;;;;;5112997;28;20054;-66
2022/11/13 01:51:11;;;;;;;40.20;26.35;;;;;;;;;;5113056;28;20489;-67
2022/11/13 01:53:39;;;;;;;39.67;26.50;;;6.70;99.90;;;;;;5111430;28;20050;-67
2022/11/13 01:56:06;;;;;;;41.92;27.13;;;6.80;99.90;;;;;;5112914;28;20132;-70
2022/11/13 01:58:32;;;;;;;47.17;27.52;;;;;;;;;;5111677;28;20047;-67
2022/11/13 02:00:58;;;;;;;41.30;26.40;;;;;;;;;;5112859;28;20050;-67
2022/11/13 02:03:24;;;;;;;40.83;27.13;;;6.80;99.90;;;;;;5112517;28;20487;-66
2022/11/13 02:05:50;;;;;;;39.38;27.60;;;7.10;99.90;;;;;;5112888;28;20049;-66
2022/11/13 02:08:16;;;;;;;43.63;27.67;;;6.50;99.90;;;;;;5112558;28;20053;-67
2022/11/13 02:10:42;;;;;;;41.03;26.35;;;6.50;99.90;;;;;;5113126;28;20044;-66
2022/11/13 02:13:09;;;;;;;40.50;25.88;;;6.50;99.90;;;;;;5111434;28;20040;-67
2022/11/13 02:15:34;;;;;;;43.75;26.63;;;6.30;99.90;;;;;;5112711;28;20047;-66
2022/11/13 02:18:02;;;;;;;40.90;27.38;;;6.60;99.90;;;;;;5111394;28;20062;-68
2022/11/13 02:20:45;;;;;;;38.28;26.23;;;6.80;99.90;;;;;;5111685;28;20051;-67
2022/11/13 02:23:23;;;;;;;36.55;25.75;;;6.70;99.90;;;;;;5112123;28;20484;-67
2022/11/13 02:25:51;;;;;;;40.78;27.63;;;6.60;99.90;;;;;;5112889;28;20044;-67
2022/11/13 02:28:17;;;;;;;44.85;28.10;;;6.60;99.90;;;;;;5112612;28;20126;-67
2022/11/13 02:30:43;;;;;;;41.38;27.45;;;6.60;99.90;;;;;;5114045;28;20135;-66
2022/11/13 02:33:27;;;;;;;42.38;26.67;;;6.00;99.90;;;;;;5116171;28;20081;-66
2022/11/13 02:35:53;;;;;;;40.05;27.08;;;6.00;99.90;;;;;;5116317;28;20404;-66
2022/11/13 02:38:19;;;;;;;38.10;26.50;;;6.40;99.90;;;;;;5115769;28;20044;-66
2022/11/13 02:40:45;;;;;;;42.92;27.60;;;;;;;;;;5116146;28;20122;-66
2022/11/13 02:43:11;;;;;;;40.00;27.52;;;6.30;99.90;;;;;;5115823;28;20516;-68
2022/11/13 02:45:40;;;;;;;41.45;27.35;;;6.50;99.90;;;;;;5115986;28;20094;-67
2022/11/13 02:48:06;;;;;;;42.88;27.52;;;6.30;99.90;;;;;;5114888;28;20044;-67
2022/11/13 02:50:33;;;;;;;44.05;28.25;;;6.50;99.90;;;;;;5114832;28;20050;-67
2022/11/13 02:52:59;;;;;;;46.05;28.33;;;6.60;99.90;;;;;;5115561;28;20048;-67
2022/11/13 02:55:25;;;;;;;42.67;29.63;;;6.50;99.90;;;;;;5115966;28;20519;-66
2022/11/13 02:57:51;;;;;;;44.17;29.48;;;6.70;99.90;;;;;;5115844;28;20044;-67
2022/11/13 03:00:17;;;;;;;43.35;28.33;;;6.50;99.90;;;;;;5115856;28;20069;-67
2022/11/13 03:02:42;;;;;;;;;;;6.30;99.90;;;;;;5116197;28;20044;-67
2022/11/13 03:05:09;;;;;;;42.58;28.20;;;6.70;99.90;;;;;;5115964;28;19946;-67
2022/11/13 03:07:34;;;;;;;;;;;6.60;99.90;;;;;;5115849;28;20043;-66
2022/11/13 03:10:00;;;;;;;45.92;28.55;;;;;;;;;;5115553;28;19927;-67
2022/11/13 03:12:26;;;;;;;42.00;28.42;;;6.50;99.90;;;;;;5115152;28;20499;-70
2022/11/13 03:14:52;;;;;;;45.70;27.52;;;6.90;99.90;;;;;;5115882;28;20101;-67
2022/11/13 03:17:18;;;;;;;43.50;28.17;;;;;;;;;;5115482;28;20059;-67
2022/11/13 03:19:43;;;;;;;40.45;27.65;;;6.60;99.90;;;;;;5115096;28;20093;-67
2022/11/13 03:22:09;;;;;;;42.80;27.25;;;6.70;99.90;;;;;;5115379;28;20043;-67
2022/11/13 03:24:35;;;;;;;48.78;28.77;;;;;;;;;;5115344;28;20042;-66
2022/11/13 03:27:01;;;;;;;44.22;27.23;;;6.60;99.90;;;;;;5115299;28;20130;-67
2022/11/13 03:29:27;;;;;;;42.58;27.02;;;;;;;;;;5115182;28;20134;-68
2022/11/13 03:31:52;;;;;;;44.10;28.25;;;7.10;99.90;;;;;;5115134;28;20040;-67
2022/11/13 03:34:18;;;;;;;43.60;28.65;;;6.90;99.90;;;;;;5114725;28;20046;-68
2022/11/13 03:36:44;;;;;;;45.58;29.25;;;6.90;99.90;;;;;;5115067;28;20399;-67
2022/11/13 03:39:09;;;;;;;43.92;28.90;;;6.80;99.90;;;;;;5114794;28;20143;-66
2022/11/13 03:41:36;;;;;;;44.65;28.10;;;;;;;;;;5114206;28;20555;-67
2022/11/13 03:44:01;;;;;;;43.78;27.95;;;6.70;99.90;;;;;;5114637;28;20055;-68
2022/11/13 03:46:27;;;;;;;43.47;27.20;;;7.10;99.90;;;;;;5114875;28;20548;-67
2022/11/13 03:48:53;;;;;;;40.97;28.05;;;7.00;99.90;;;;;;5114514;28;20055;-67
2022/11/13 03:51:19;;;;;;;45.05;28.63;;;;;;;;;;5114738;28;20051;-67
2022/11/13 03:53:44;;;;;;;42.03;27.50;;;6.90;99.90;;;;;;5114640;28;20044;-67
2022/11/13 03:56:10;;;;;;;42.45;27.63;;;7.00;99.90;;;;;;5113686;28;20039;-66
2022/11/13 03:58:35;;;;;;;44.72;27.00;;;7.20;99.90;;;;;;5114597;28;20079;-67
2022/11/13 04:01:02;;;;;;;38.95;28.05;;;;;;;;;;5114547;28;20071;-67
2022/11/13 04:03:28;;;;;;;44.22;27.85;;;;;;;;;;5114215;28;20048;-67
2022/11/13 04:05:53;;;;;;;43.45;28.60;;;7.10;99.90;;;;;;5114432;28;20083;-67
2022/11/13 04:08:19;;;;;;;43.15;27.38;;;6.90;99.90;;;;;;5114731;28;20136;-67
2022/11/13 04:10:45;;;;;;;38.25;27.13;;;7.20;99.90;;;;;;5113143;28;20476;-67
2022/11/13 04:13:11;;;;;;;44.05;28.73;;;7.20;99.90;;;;;;5114284;28;20051;-67
2022/11/13 04:15:37;;;;;;;42.05;28.45;;;7.00;99.90;;;;;;5114244;28;20039;-66
2022/11/13 04:18:03;;;;;;;39.97;27.92;;;7.10;99.90;;;;;;5114005;28;20051;-67
2022/11/13 04:20:29;;;;;;;44.40;26.60;;;6.70;99.90;;;;;;5113865;28;20053;-68
2022/11/13 04:22:57;;;;;;;38.55;26.52;;;7.00;99.90;;;;;;5114259;28;20114;-67
2022/11/13 04:25:24;;;;;;;41.35;26.30;;;7.00;99.90;;;;;;5114153;28;20051;-68
2022/11/13 04:27:51;;;;;;;41.45;24.85;;;7.00;99.90;;;;;;5113852;28;20043;-67
2022/11/13 04:30:18;;;;;;;44.33;25.98;;;7.00;99.90;;;;;;5114013;27;20043;-67
2022/11/13 04:32:44;;;;;;;38.15;25.60;;;7.30;99.90;;;;;;5113594;28;20048;-67
2022/11/13 04:35:10;;;;;;;39.90;25.42;;;7.10;99.90;;;;;;5114219;28;20048;-67
2022/11/13 04:37:36;;;;;;;38.88;26.77;;;7.20;99.90;;;;;;5113894;28;20083;-67
2022/11/13 04:40:03;;;;;;;35.83;24.92;;;7.20;99.90;;;;;;5113305;28;20059;-69
2022/11/13 04:45:21;;;;;;;38.10;23.88;;;6.80;99.90;;;;;;5113823;28;20109;-68
2022/11/13 04:47:47;;;;;;;38.05;26.05;;;7.20;99.90;;;;;;5113522;28;20052;-68
2022/11/13 04:50:14;;;;;;;34.83;24.48;;;6.60;99.90;;;;;;5112413;28;20051;-71
2022/11/13 04:52:40;;;;;;;35.67;24.52;;;6.90;99.90;;;;;;5113420;28;20044;-67
2022/11/13 04:55:07;;;;;;;37.83;25.60;;;7.00;99.90;;;;;;5113261;28;20050;-67
2022/11/13 04:57:33;;;;;;;37.15;24.83;;;7.20;99.90;;;;;;5113574;28;20048;-68
2022/11/13 04:59:59;;;;;;;38.53;25.38;;;7.10;99.90;;;;;;5113541;28;20055;-67
2022/11/13 05:02:24;;;;;;;38.33;25.77;;;7.00;99.90;;;;;;5113251;28;20054;-67
2022/11/13 05:04:51;;;;;;;39.80;26.30;;;;;;;;;;5113495;28;20043;-67
2022/11/13 05:07:16;;;;;;;35.13;24.95;;;7.30;99.90;;;;;;5113477;28;20391;-67
2022/11/13 05:09:42;;;;;;;39.22;25.08;;;6.70;99.90;;;;;;5113068;28;20062;-67
2022/11/13 05:12:08;;;;;;;33.88;23.67;;;6.80;99.90;;;;;;5113360;28;20055;-68
2022/11/13 05:14:38;;;;;;;38.13;25.27;;;6.60;99.90;;;;;;5113379;28;20047;-67
2022/11/13 05:17:05;;;;;;;37.83;23.80;;;7.00;99.90;;;;;;5113077;28;20039;-68
2022/11/13 05:19:32;;;;;;;39.67;24.50;;;7.00;99.90;;;;;;5113267;28;20042;-67
2022/11/13 05:21:58;;;;;;;35.50;24.73;;;;;;;;;;5113259;28;20066;-69
2022/11/13 05:24:24;;;;;;;38.03;24.85;;;;;;;;;;5113204;28;20039;-67
2022/11/13 05:26:50;;;;;;;37.88;24.10;;;;;;;;;;5112864;28;20594;-68
2022/11/13 05:29:16;;;;;;;41.47;24.95;;;7.10;99.90;;;;;;5113149;28;20051;-67
2022/11/13 05:31:42;;;;;;;35.42;24.05;;;6.90;99.90;;;;;;5112956;28;20433;-67
2022/11/13 05:34:08;;;;;;;38.55;25.70;;;7.10;99.90;;;;;;5113141;28;20040;-70
2022/11/13 05:36:34;;;;;;;38.33;25.23;;;;;;;;;;5113174;28;20205;-68
2022/11/13 05:39:00;;;;;;;33.78;24.20;;;6.90;99.90;;;;;;5111873;28;20212;-67
2022/11/13 05:41:26;;;;;;;36.75;25.15;;;6.90;99.90;;;;;;5113120;28;20134;-67
2022/11/13 05:43:52;;;;;;;35.72;23.85;;;6.80;99.90;;;;;;5113036;28;20100;-67
2022/11/13 05:46:26;;;;;;;34.15;23.02;;;6.80;99.90;;;;;;5112815;28;20051;-70
2022/11/13 05:48:56;;;;;;;37.22;24.02;;;6.40;99.90;;;;;;5113148;28;20051;-67
2022/11/13 05:51:25;;;;;;;37.50;23.98;;;7.10;99.90;;;;;;5113028;28;20059;-67
2022/11/13 05:53:51;;;;;;;37.90;25.00;;;7.00;99.90;;;;;;5112493;28;20130;-67
2022/11/13 05:56:26;;;;;;;34.13;23.85;;;6.90;99.90;;;;;;5112943;28;20052;-67
2022/11/13 05:58:53;;;;;;;37.00;22.67;;;6.60;99.90;;;;;;5112991;28;20392;-67
2022/11/13 06:01:23;;;;;;;36.88;23.50;;;6.60;99.90;;;;;;5112389;28;20043;-67
2022/11/13 06:03:50;;;;;;;36.78;23.80;;;6.70;99.90;;;;;;5112931;28;20047;-67
2022/11/13 06:06:18;;;;;;;37.67;23.35;;;6.50;99.90;;;;;;5114992;28;20054;-67
2022/11/13 06:08:45;;;;;;;34.45;22.85;;;6.60;99.90;;;;;;5116835;28;20131;-68
2022/11/13 06:11:13;;;;;;;32.33;21.77;;;;;;;;;;5116718;28;20055;-67
2022/11/13 06:13:40;;;;;;;34.60;21.88;;;;;;;;;;5116608;28;20117;-67
2022/11/13 06:16:12;;;;;;;30.70;22.25;;;6.50;99.90;;;;;;5116628;28;20047;-66
2022/11/13 06:18:39;;;;;;;34.47;22.30;;;6.60;99.90;;;;;;5116694;28;20050;-68
2022/11/13 06:21:07;;;;;;;36.05;22.63;;;6.60;99.90;;;;;;5116595;28;20043;-67
2022/11/13 06:23:35;;;;;;;32.60;21.75;;;6.40;99.90;;;;;;5116509;28;20048;-67
2022/11/13 06:26:06;;;;;;;37.15;21.40;;;6.60;99.90;;;;;;5116441;28;20087;-67
2022/11/13 06:28:33;;;;;;;38.80;23.88;;;6.50;99.90;;;;;;5116220;28;20048;-66
2022/11/13 06:31:06;;;;;;;32.13;22.40;;;6.40;99.90;;;;;;5116406;28;20085;-69
2022/11/13 06:33:32;;;;;;;32.92;21.30;;;;;;;;;;5116302;28;20514;-67
2022/11/13 06:36:05;;;;;;;31.17;21.80;;;6.30;99.90;;;;;;5116290;28;20044;-67
2022/11/13 06:38:35;;;;;;;32.58;21.10;;;6.20;99.90;;;;;;5115986;28;20499;-67
2022/11/13 06:41:02;;;;;;;35.15;20.83;;;;;;;;;;5116147;28;20060;-67
2022/11/13 06:43:28;;;;;;;32.00;21.52;;;6.50;99.90;;;;;;5115921;28;20051;-67
2022/11/13 06:45:54;;;;;;;31.60;20.83;;;6.30;99.90;;;;;;5116158;28;20044;-68
2022/11/13 06:48:20;;;;;;;30.45;21.20;;;;;;;;;;5116021;28;20487;-67
2022/11/13 06:50:46;;;;;;;34.97;21.63;;;;;;;;;;5116022;28;20109;-67
2022/11/13 06:53:14;;;;;;;29.40;20.77;;;6.40;99.90;;;;;;5118291;27;20118;-68
2022/11/13 06:55:48;;;;;;;33.95;22.00;;;6.40;99.90;;;;;;5133556;27;20112;-68
2022/11/13 06:58:14;;;;;;;34.70;21.58;;;6.20;99.90;;;;;;5136028;27;20059;-70
2022/11/13 07:00:41;;;;;;;33.15;20.50;;;;;;;;;;5135929;27;20502;-68
2022/11/13 07:03:21;;;;;;;35.80;21.48;;;6.10;99.90;;;;;;5136225;27;20547;-67
2022/11/13 07:05:47;;;;;;;34.08;20.65;;;6.30;99.90;;;;;;5136317;27;20043;-67
2022/11/13 07:08:14;;;;;;;35.00;21.77;;;;;;;;;;5136249;27;20051;-67
2022/11/13 07:10:40;;;;;;;;;;;5.80;99.90;;;;;;5136254;27;20050;-68
2022/11/13 07:13:05;;;;;;;28.67;19.85;;;6.10;99.90;;;;;;5135791;27;19926;-67
2022/11/13 07:15:35;;;;;;;33.88;20.33;;;6.30;99.90;;;;;;5136163;27;20202;-68
2022/11/13 07:18:02;;;;;;;32.88;20.90;;;;;;;;;;5135795;27;20487;-68
2022/11/13 07:20:28;;;;;;;29.50;20.17;;;;;;;;;;5135928;27;20133;-67
2022/11/13 07:22:58;;;;;;;31.73;21.05;;;5.90;99.90;;;;;;5135934;27;20054;-69
2022/11/13 07:25:24;;;;;;;32.35;19.98;;;6.10;99.90;;;;;;5135834;27;20050;-67
2022/11/13 07:27:50;;;;;;;35.25;22.52;;;5.90;99.90;;;;;;5135501;27;20043;-67
2022/11/13 07:30:16;;;;;;;34.92;20.13;;;6.10;99.90;;;;;;5135802;27;20129;-68
2022/11/13 07:32:42;;;;;;;;;;;;;;;;;;5136168;27;20043;-67
2022/11/13 07:35:08;;;;;;;29.88;19.23;;;;;;;;;;5135707;27;19930;-68
2022/11/13 07:37:34;;;;;;;30.15;19.83;;;6.30;99.90;;;;;;5135632;27;20043;-69
2022/11/13 07:40:00;;;;;;;27.13;20.30;;;6.10;99.90;;;;;;5135516;27;20336;-68
2022/11/13 07:42:26;;;;;;;34.15;20.15;;;;;;;;;;5135247;27;20501;-68
2022/11/13 07:44:52;;;;;;;29.23;20.25;;;6.20;99.90;;;;;;5135469;27;20043;-67
2022/11/13 07:47:18;;;;;;;31.10;20.38;;;6.50;99.90;;;;;;5135393;27;20039;-67
2022/11/13 07:49:44;;;;;;;31.63;20.85;;;6.60;99.90;;;;;;5135412;27;20046;-67
2022/11/13 07:52:10;;;;;;;29.45;19.83;;;6.50;99.90;;;;;;5135371;27;20047;-69
2022/11/13 07:54:35;;;;;;;29.95;21.25;;;6.50;99.90;;;;;;5134858;27;20047;-67
2022/11/13 07:57:01;;;;;;;29.05;20.08;;;6.40;99.90;;;;;;5134749;27;20064;-67
2022/11/13 07:59:27;;;;;;;28.95;18.98;;;6.50;99.90;;;;;;5135264;27;20039;-67
2022/11/13 08:01:52;;;;;;;34.15;19.83;;;6.80;99.90;;;;;;5134827;27;20100;-67
2022/11/13 08:04:18;;;;;;;31.00;20.65;;;6.80;99.90;;;;;;5135074;27;20074;-67
2022/11/13 08:06:44;;;;;;;28.17;19.50;;;6.80;99.90;;;;;;5135021;27;20047;-67
2022/11/13 08:09:09;;;;;;;29.77;20.35;;;7.10;99.90;;;;;;5134986;27;20097;-67
2022/11/13 08:11:35;;;;;;;30.35;20.65;;;7.00;99.90;;;;;;5134707;27;20043;-70
2022/11/13 08:14:01;;;;;;;29.35;19.42;;;;;;;;;;5134831;27;20043;-67
2022/11/13 08:16:27;;;;;;;29.27;20.15;;;;;;;;;;5134841;27;20391;-67
2022/11/13 08:18:53;;;;;;;28.80;19.63;;;7.30;99.90;;;;;;5134786;27;20043;-68
2022/11/13 08:21:20;;;;;;;32.50;21.13;;;;;;;;;;5133670;27;20043;-67
2022/11/13 08:23:46;;;;;;;32.67;19.83;;;;;;;;;;5134711;27;20051;-67
2022/11/13 08:26:12;;;;;;;29.75;19.95;;;7.30;99.90;;;;;;5133468;27;20042;-68
2022/11/13 08:28:38;;;;;;;26.73;19.90;;;7.50;99.90;;;;;;5134299;27;20609;-67
2022/11/13 08:31:08;;;;;;;;;;;7.50;99.90;;;;;;5134718;27;20492;-67
2022/11/13 08:33:34;;;;;;;29.02;19.63;;;7.50;99.90;;;;;;5134566;27;19919;-67
2022/11/13 08:35:59;;;;;;;27.73;20.30;;;7.50;99.90;;;;;;5134267;27;20054;-67
2022/11/13 08:38:26;;;;;;;29.27;19.50;;;6.60;99.90;;;;;;5134434;27;20051;-71
2022/11/13 08:40:55;;;;;;;28.85;20.25;;;7.70;99.90;;;;;;5134252;27;20086;-67
2022/11/13 08:43:20;;;;;;;42.17;20.52;;;7.70;99.90;;;;;;5134457;27;20051;-67
2022/11/13 08:45:46;;;;;;;30.13;19.35;;;7.70;99.90;;;;;;5134440;27;20047;-68
2022/11/13 08:48:12;;;;;;;31.52;19.77;;;8.10;99.90;;;;;;5134279;27;20100;-68
2022/11/13 08:50:38;;;;;;;26.90;18.98;;;8.00;99.90;;;;;;5132963;27;20041;-68
2022/11/13 08:53:04;;;;;;;;;;;;;;;;;;5134617;27;20035;-68
2022/11/13 08:55:32;;;;;;;30.52;19.30;;;8.20;99.90;;;;;;5133904;27;20396;-70
2022/11/13 08:57:59;;;;;;;35.45;21.55;;;8.30;99.90;;;;;;5134162;27;20053;-67
2022/11/13 09:00:27;;;;;;;32.33;20.67;;;8.20;99.90;;;;;;5134082;27;20571;-67
2022/11/13 09:02:54;;;;;;;43.67;22.67;;;8.50;99.90;;;;;;5134074;27;20047;-68
2022/11/13 09:05:20;;;;;;;48.58;23.35;;;8.60;99.90;;;;;;5134011;27;20047;-68
2022/11/13 09:07:46;;;;;;;35.58;20.48;;;8.80;99.90;;;;;;5133742;27;20043;-69
2022/11/13 09:10:12;;;;;;;40.25;21.38;;;8.70;99.90;;;;;;5133654;27;20047;-68
2022/11/13 09:12:37;;;;;;;32.63;21.55;;;9.10;99.90;;;;;;5133791;27;20172;-68
2022/11/13 09:15:04;;;;;;;43.15;25.20;;;9.10;99.90;;;;;;5133895;27;20084;-68
2022/11/13 09:17:30;;;;;;;33.17;21.00;;;9.00;99.90;;;;;;5133865;27;20046;-68
2022/11/13 09:19:56;;;;;;;32.58;19.65;;;9.30;99.90;;;;;;5133836;27;20043;-72
2022/11/13 09:22:21;;;;;;;29.40;18.65;;;9.80;99.90;;;;;;5133493;27;20043;-68
2022/11/13 09:24:47;;;;;;;25.55;17.08;;;9.30;99.90;;;;;;5133493;27;20506;-68
2022/11/13 09:27:13;;;;;;;24.83;16.33;;;9.60;99.90;;;;;;5133721;27;20043;-68
2022/11/13 09:29:39;;;;;;;23.65;17.40;;;9.30;99.90;;;;;;5133897;27;20043;-68
2022/11/13 09:32:05;;;;;;;22.35;16.58;;;10.20;99.90;;;;;;5133726;28;20429;-68
2022/11/13 09:34:32;;;;;;;26.13;18.20;;;10.10;99.90;;;;;;5133547;27;20045;-68
2022/11/13 09:36:58;;;;;;;28.52;18.80;;;10.20;99.90;;;;;;5133489;27;20051;-68
2022/11/13 09:39:24;;;;;;;31.15;20.63;;;10.20;99.90;;;;;;5133411;27;20130;-68
2022/11/13 09:42:14;;;;;;;24.38;16.95;;;10.40;99.90;;;;;;5137251;27;20097;-68
2022/11/13 09:44:47;;;;;;;36.67;21.05;;;10.10;99.90;;;;;;5137803;27;20047;-68
2022/11/13 09:47:20;;;;;;;21.40;15.63;;;10.60;99.90;;;;;;5137835;27;20047;-68
2022/11/13 09:49:52;;;;;;;22.85;14.93;;;10.40;99.90;;;;;;5137870;27;20050;-68
2022/11/13 09:52:24;;;;;;;21.92;13.63;;;10.50;99.90;;;;;;5137466;27;20043;-68
2022/11/13 09:54:50;;;;;;;18.00;13.45;;;10.50;99.90;;;;;;5137640;27;19919;-68
2022/11/13 09:57:34;;;;;;;20.75;14.45;;;10.30;99.90;;;;;;5137864;27;20043;-68
2022/11/13 10:00:09;;;;;;;20.00;13.70;;;10.90;99.90;;;;;;5137553;27;20043;-68
2022/11/13 10:02:46;;;;;;;20.90;14.02;;;10.80;99.90;;;;;;5137462;27;20510;-68
2022/11/13 10:05:36;;;;;;;20.45;13.57;;;11.00;99.90;;;;;;5137456;27;20556;-68
2022/11/13 10:08:23;;;;;;;20.88;13.20;;;11.30;99.90;;;;;;5137242;27;20047;-68
2022/11/13 10:10:52;;;;;;;17.35;12.48;;;11.10;99.90;;;;;;5137374;27;20084;-68
2022/11/13 10:13:44;;;;;;;19.23;12.80;;;11.70;99.90;;;;;;5137236;27;20075;-68
2022/11/13 10:16:28;;;;;;;15.00;12.25;;;11.80;99.90;;;;;;5137221;27;20504;-68
2022/11/13 10:18:59;;;;;;;16.95;12.38;;;11.50;99.90;;;;;;5137244;27;20100;-69
2022/11/13 10:21:38;;;;;;;14.80;11.50;;;12.20;99.90;;;;;;5136899;27;20108;-68
2022/11/13 10:24:21;;;;;;;17.70;12.35;;;12.20;99.90;;;;;;5137141;27;20499;-69
2022/11/13 10:26:46;;;;;;;18.42;12.52;;;12.30;99.90;;;;;;5137162;27;20108;-70
2022/11/13 10:29:16;;;;;;;17.05;11.93;;;12.20;99.90;;;;;;5136739;27;20441;-69
2022/11/13 10:31:50;;;;;;;17.45;11.65;;;12.10;99.90;;;;;;5136932;27;20059;-71
2022/11/13 10:34:17;;;;;;;16.45;10.60;;;12.10;99.90;;;;;;5136922;27;20039;-69
2022/11/13 10:36:59;;;;;;;16.10;11.75;;;12.20;99.90;;;;;;5135611;27;20427;-69
2022/11/13 10:39:25;;;;;;;17.88;12.57;;;12.50;99.90;;;;;;5136582;27;20065;-68
2022/11/13 10:41:54;;;;;;;15.45;10.10;;;12.50;99.90;;;;;;5136790;27;20047;-68
2022/11/13 10:44:29;;;;;;;18.15;10.82;;;12.50;99.90;;;;;;5136727;27;20084;-68
2022/11/13 10:47:04;;;;;;;14.07;9.80;;;12.60;99.90;;;;;;5136739;27;20112;-68
2022/11/13 10:49:30;;;;;;;13.40;10.38;;;12.80;99.90;;;;;;5135388;27;20521;-68
2022/11/13 10:51:57;;;;;;;14.35;10.18;;;12.70;99.90;;;;;;5136044;27;20083;-68
2022/11/13 10:54:31;;;;;;;14.02;9.63;;;12.70;99.90;;;;;;5136476;27;20043;-68
2022/11/13 10:57:16;;;;;;;13.90;10.38;;;12.90;99.90;;;;;;5135453;27;20043;-69
2022/11/13 10:59:43;;;;;;;16.98;11.48;;;12.80;99.90;;;;;;5136505;27;20082;-69
2022/11/13 11:02:19;;;;;;;20.20;11.77;;;13.00;99.90;;;;;;5136408;27;20059;-68
2022/11/13 11:04:45;;;;;;;17.95;10.88;;;13.10;99.90;;;;;;5136049;27;20054;-68
2022/11/13 11:07:19;;;;;;;17.10;10.77;;;13.30;99.90;;;;;;5136315;27;20039;-67
2022/11/13 11:09:46;;;;;;;19.60;11.85;;;13.00;99.90;;;;;;5136234;27;20054;-67
2022/11/13 11:12:16;;;;;;;20.85;10.98;;;13.20;99.90;;;;;;5135846;27;20566;-69
2022/11/13 11:14:57;;;;;;;13.20;9.55;;;13.40;99.90;;;;;;5135997;27;20054;-67
2022/11/13 11:17:38;;;;;;;13.13;9.50;;;13.40;99.90;;;;;;5136002;27;20054;-68
2022/11/13 11:20:18;;;;;;;15.75;10.30;;;13.30;99.90;;;;;;5135793;27;20066;-68
2022/11/13 11:22:46;;;;;;;12.50;9.98;;;13.60;99.90;;;;;;5135962;27;20035;-67
2022/11/13 11:25:19;;;;;;;13.55;9.50;;;13.60;99.90;;;;;;5134885;27;20620;-69
2022/11/13 11:28:05;;;;;;;12.57;9.00;;;13.60;99.90;;;;;;5135967;27;20043;-67
2022/11/13 11:30:39;;;;;;;10.60;7.95;;;13.60;99.90;;;;;;5135809;27;20099;-67
2022/11/13 11:33:30;;;;;;;11.48;9.05;;;13.40;99.90;;;;;;5135116;27;20471;-67
2022/11/13 11:36:04;;;;;;;14.60;9.13;;;13.30;99.90;;;;;;5136052;27;20356;-67
2022/11/13 11:38:49;;;;;;;13.60;9.10;;;13.60;99.90;;;;;;5135610;27;20039;-67
2022/11/13 11:41:19;;;;;;;11.82;9.05;;;13.60;99.90;;;;;;5135286;27;20139;-68
2022/11/13 11:44:03;;;;;;;14.23;10.05;;;13.50;99.90;;;;;;5135551;27;20050;-68
2022/11/13 11:46:29;;;;;;;13.25;9.23;;;13.60;99.90;;;;;;5135509;27;20076;-67
2022/11/13 11:49:00;;;;;;;12.38;9.98;;;13.40;99.90;;;;;;5135118;27;20043;-67
2022/11/13 11:51:53;;;;;;;17.40;10.57;;;13.70;99.90;;;;;;5135459;27;20039;-67
2022/11/13 11:54:19;;;;;;;15.13;11.32;;;13.80;99.90;;;;;;5134984;27;20570;-67
2022/11/13 11:56:52;;;;;;;17.88;12.18;;;13.40;99.90;;;;;;5135263;27;20208;-68
2022/11/13 11:59:39;;;;;;;16.23;12.35;;;13.00;99.90;;;;;;5135311;27;20108;-68
2022/11/13 12:02:05;;;;;;;13.65;11.88;;;13.20;99.90;;;;;;5134708;27;20047;-67
2022/11/13 12:04:43;;;;;;;15.82;12.23;;;13.00;99.90;;;;;;5134265;27;20062;-67
2022/11/13 12:07:23;;;;;;;16.48;12.57;;;12.60;99.90;;;;;;5135049;27;20055;-67
2022/11/13 12:10:06;;;;;;;16.00;12.25;;;12.40;99.90;;;;;;5135010;27;20079;-67
2022/11/13 12:13:14;;;;;;;16.35;12.07;;;12.50;99.90;;;;;;5134975;27;20093;-67
2022/11/13 12:15:44;;;;;;;16.67;12.52;;;12.40;99.90;;;;;;5124011;27;20091;-67
2022/11/13 12:18:14;;;;;;;17.05;12.40;;;12.20;99.90;;;;;;5134604;27;20047;-67
2022/11/13 12:20:55;;;;;;;15.73;11.40;;;12.60;99.90;;;;;;5133695;27;20136;-67
2022/11/13 12:23:43;;;;;;;16.90;13.10;;;12.50;99.90;;;;;;5134794;27;20133;-67
2022/11/13 12:26:14;;;;;;;16.38;11.93;;;12.70;99.90;;;;;;5134794;27;20097;-67
2022/11/13 12:28:55;;;;;;;16.20;10.75;;;12.80;99.90;;;;;;5134672;27;20050;-68
2022/11/13 12:31:47;;;;;;;17.13;11.82;;;12.90;99.90;;;;;;5134364;27;20047;-67
2022/11/13 12:34:18;;;;;;;15.20;11.48;;;13.80;99.90;;;;;;5134488;27;20046;-68
2022/11/13 12:36:44;;;;;;;12.43;10.13;;;13.60;99.90;;;;;;5134487;27;20050;-67
2022/11/13 12:39:32;;;;;;;12.05;9.82;;;14.00;99.90;;;;;;5133047;27;20047;-68
2022/11/13 12:42:22;;;;;;;12.45;9.63;;;14.10;99.90;;;;;;5134547;27;20135;-67
2022/11/13 12:45:40;;;;;;;11.52;9.20;;;14.30;99.90;;;;;;5134419;27;20065;-70
2022/11/13 12:48:27;;;;;;;13.18;9.40;;;14.30;99.90;;;;;;5088411;27;20046;-67
2022/11/13 12:51:01;;;;;;;11.35;8.80;;;13.80;99.90;;;;;;5119753;27;20059;-67
2022/11/13 12:53:30;;;;;;;9.73;8.70;;;14.00;99.90;;;;;;5134250;27;20122;-67
2022/11/13 12:56:01;;;;;;;10.63;9.10;;;14.00;99.90;;;;;;5132964;27;20051;-67
2022/11/13 12:58:29;;;;;;;13.02;9.85;;;13.70;99.90;;;;;;5134224;27;20050;-67
2022/11/13 13:01:17;;;;;;;14.65;9.93;;;13.80;99.90;;;;;;5133851;27;20463;-67